Escondido, CA (92025)

5:21 AM PDT on June 26, 2017 (GMT -0700)
Twin Pines '61 | | Change Station
Active Advisory: Heat Advisory

Elev 663 ft 33.10 °N, 117.06 °W | Updated 16 seconds ago

Clear
Clear
67.5 °F
Feels Like 67.5 °F
N
0.0
Wind Variable Wind from WSW
Gusts 0.0 mph

Today
High -- | Low -- °F
--% Chance of Precip.
Yesterday
High -- | Low -- °F
Precip. -- in
Pressure 29.88 in
Visibility 10.0 miles
Clouds Clear
Dew Point 65 °F
Humidity 92%
Rainfall 0.00 in
Snow Depth Not available.
5:41 AM 8:01 PM
Waxing Crescent, 8% visible
METAR KRNM 261153Z AUTO 00000KT 10SM CLR 16/13 A2993 RMK AO2 SLP118 T01610128 10217 20156 55005
Pressure 29.88 in
Visibility 10.0 miles
Clouds Clear
Dew Point 65 °F
Humidity 92%
Rainfall 0.00 in
Snow Depth Not available.
5:41 AM 8:01 PM
Waxing Crescent, 8% visible
METAR KRNM 261153Z AUTO 00000KT 10SM CLR 16/13 A2993 RMK AO2 SLP118 T01610128 10217 20156 55005

Get Your Daily Forecast Email!

Thanks for signing up!

Be on the lookout for a verification email in your inbox.

You'll start receiving severe weather alerts in your inbox..

×

10-Day Weather Forecast

Almanac

Astronomy

Jun. 26, 2017 Rise Set
Actual Time
Civil Twilight
Nautical Twilight
Astronomical Twilight
Moon
Length of Visible Light
Length of Day
Tomorrow will be .
, % of the Moon is Illuminated

Today's Extremes

State Highs State Lows

Community

WunderPhotos

Category 6

Welcome to Category 6. This is the collective home for Weather Underground's featured writeups by Dr. Jeff Masters (right), Bob Henson (left), Chris Burt, and other regular contributors.

Nearby

Air Quality

  Air Quality AQ Index Pollutant
Not available.

Snow Depth

Station Depth Elevation

Earthquake Activity

City Distance Mag. Time & Date
Minimum magnitude displayed is 2.5.

Coastal Water Temperatures

Place Temperature

Stations

Nearby Weather Stations

Station Location Temp. Windchill Dew Point Humidity Wind Precip. Elev Updated Type
                   

Watches & Warnings

Heat Advisory
Issued: 3:38 AM PDT Jun. 26, 2017 – National Weather Service

... Heat advisory in effect from 10 am this morning to 9 PM PDT
this evening for inland valleys and near the foothills...

The National Weather Service in San Diego has issued a heat
advisory... which is in effect from 10 am this morning to 9 PM PDT
this evening.

* High temperatures... 98 to 103.

* Location... inland valleys and near the foothills.

* Impacts... those working or spending time outdoors, the
elderly, children, and those unaccustomed to excessive heat
will be most susceptible to dangerous heat illness.

Precautionary/preparedness actions...

Take extra precautions... if you work or spend time outside. When
possible... reschedule strenuous activities to early morning or
evening. Know the signs and symptoms of heat exhaustion and heat
stroke. Wear light weight and loose fitting clothing when
possible and drink plenty of water.